sensor_id;sensor_type;location;lat;lon;timestamp;temperature;humidity
12872;DHT22;6504;53.766;9.626;2022-09-02T00:01:42;13.80;99.90
12872;DHT22;6504;53.766;9.626;2022-09-02T00:04:14;13.80;99.90
12872;DHT22;6504;53.766;9.626;2022-09-02T00:06:44;13.80;99.90
12872;DHT22;6504;53.766;9.626;2022-09-02T00:09:20;13.80;99.90
12872;DHT22;6504;53.766;9.626;2022-09-02T00:11:50;13.80;99.90
12872;DHT22;6504;53.766;9.626;2022-09-02T00:14:24;13.80;99.90
12872;DHT22;6504;53.766;9.626;2022-09-02T00:16:52;13.80;99.90
12872;DHT22;6504;53.766;9.626;2022-09-02T00:19:25;13.70;99.90
12872;DHT22;6504;53.766;9.626;2022-09-02T00:21:54;13.60;99.90
12872;DHT22;6504;53.766;9.626;2022-09-02T00:24:25;13.60;99.90
12872;DHT22;6504;53.766;9.626;2022-09-02T00:26:53;13.60;99.90
12872;DHT22;6504;53.766;9.626;2022-09-02T00:29:29;13.60;99.90
12872;DHT22;6504;53.766;9.626;2022-09-02T00:31:57;13.60;99.90
12872;DHT22;6504;53.766;9.626;2022-09-02T00:34:26;13.60;99.90
12872;DHT22;6504;53.766;9.626;2022-09-02T00:36:57;13.60;99.90
12872;DHT22;6504;53.766;9.626;2022-09-02T00:39:31;13.50;99.90
12872;DHT22;6504;53.766;9.626;2022-09-02T00:41:59;13.50;99.90
12872;DHT22;6504;53.766;9.626;2022-09-02T00:44:28;13.50;99.90
12872;DHT22;6504;53.766;9.626;2022-09-02T00:46:58;13.50;99.90
12872;DHT22;6504;53.766;9.626;2022-09-02T00:49:29;13.50;99.90
12872;DHT22;6504;53.766;9.626;2022-09-02T00:52:04;13.50;99.90
12872;DHT22;6504;53.766;9.626;2022-09-02T00:54:39;13.50;99.90
12872;DHT22;6504;53.766;9.626;2022-09-02T00:57:10;13.50;99.90
12872;DHT22;6504;53.766;9.626;2022-09-02T00:59:50;13.40;99.90
12872;DHT22;6504;53.766;9.626;2022-09-02T01:02:19;13.40;99.90
12872;DHT22;6504;53.766;9.626;2022-09-02T01:04:51;13.50;99.90
12872;DHT22;6504;53.766;9.626;2022-09-02T01:07:23;13.50;99.90
12872;DHT22;6504;53.766;9.626;2022-09-02T01:09:54;13.50;99.90
12872;DHT22;6504;53.766;9.626;2022-09-02T01:12:25;13.50;99.90
12872;DHT22;6504;53.766;9.626;2022-09-02T01:14:58;13.50;99.90
12872;DHT22;6504;53.766;9.626;2022-09-02T01:17:29;13.50;99.90
12872;DHT22;6504;53.766;9.626;2022-09-02T01:20:06;13.40;99.90
12872;DHT22;6504;53.766;9.626;2022-09-02T01:22:40;13.40;99.90
12872;DHT22;6504;53.766;9.626;2022-09-02T01:25:14;13.40;99.90
12872;DHT22;6504;53.766;9.626;2022-09-02T01:27:46;13.40;99.90
12872;DHT22;6504;53.766;9.626;2022-09-02T01:30:17;13.40;99.90
12872;DHT22;6504;53.766;9.626;2022-09-02T01:32:48;13.30;99.90
12872;DHT22;6504;53.766;9.626;2022-09-02T01:35:17;13.30;99.90
12872;DHT22;6504;53.766;9.626;2022-09-02T01:37:54;13.30;99.90
12872;DHT22;6504;53.766;9.626;2022-09-02T01:40:25;13.30;99.90
12872;DHT22;6504;53.766;9.626;2022-09-02T01:42:59;13.30;99.90
12872;DHT22;6504;53.766;9.626;2022-09-02T01:45:28;13.30;99.90
12872;DHT22;6504;53.766;9.626;2022-09-02T01:47:56;13.30;99.90
12872;DHT22;6504;53.766;9.626;2022-09-02T01:50:24;13.30;99.90
12872;DHT22;6504;53.766;9.626;2022-09-02T01:52:59;13.30;99.90
12872;DHT22;6504;53.766;9.626;2022-09-02T01:55:30;13.20;99.90
12872;DHT22;6504;53.766;9.626;2022-09-02T01:58:01;13.20;99.90
12872;DHT22;6504;53.766;9.626;2022-09-02T02:00:30;13.20;99.90
12872;DHT22;6504;53.766;9.626;2022-09-02T02:02:58;13.20;99.90
12872;DHT22;6504;53.766;9.626;2022-09-02T02:05:26;13.20;99.90
12872;DHT22;6504;53.766;9.626;2022-09-02T02:07:56;13.20;99.90
12872;DHT22;6504;53.766;9.626;2022-09-02T02:10:26;13.20;99.90
12872;DHT22;6504;53.766;9.626;2022-09-02T02:12:58;13.10;99.90
12872;DHT22;6504;53.766;9.626;2022-09-02T02:15:27;13.10;99.90
12872;DHT22;6504;53.766;9.626;2022-09-02T02:17:57;13.10;99.90
12872;DHT22;6504;53.766;9.626;2022-09-02T02:20:25;13.10;99.90
12872;DHT22;6504;53.766;9.626;2022-09-02T02:22:53;13.10;99.90
12872;DHT22;6504;53.766;9.626;2022-09-02T02:25:25;13.10;99.90
12872;DHT22;6504;53.766;9.626;2022-09-02T02:27:53;13.10;99.90
12872;DHT22;6504;53.766;9.626;2022-09-02T02:30:22;13.10;99.90
12872;DHT22;6504;53.766;9.626;2022-09-02T02:32:50;13.00;99.90
12872;DHT22;6504;53.766;9.626;2022-09-02T02:35:19;13.00;99.90
12872;DHT22;6504;53.766;9.626;2022-09-02T02:37:50;13.00;99.90
12872;DHT22;6504;53.766;9.626;2022-09-02T02:40:20;13.00;99.90
12872;DHT22;6504;53.766;9.626;2022-09-02T02:42:56;12.90;99.90
12872;DHT22;6504;53.766;9.626;2022-09-02T02:45:27;12.90;99.90
12872;DHT22;6504;53.766;9.626;2022-09-02T02:47:55;12.90;99.90
12872;DHT22;6504;53.766;9.626;2022-09-02T02:50:29;12.80;99.90
12872;DHT22;6504;53.766;9.626;2022-09-02T02:52:57;12.80;99.90
12872;DHT22;6504;53.766;9.626;2022-09-02T02:55:28;12.80;99.90
12872;DHT22;6504;53.766;9.626;2022-09-02T02:58:00;12.80;99.90
12872;DHT22;6504;53.766;9.626;2022-09-02T03:00:31;12.80;99.90
12872;DHT22;6504;53.766;9.626;2022-09-02T03:03:05;12.80;99.90
12872;DHT22;6504;53.766;9.626;2022-09-02T03:05:40;12.70;99.90
12872;DHT22;6504;53.766;9.626;2022-09-02T03:08:09;12.70;99.90
12872;DHT22;6504;53.766;9.626;2022-09-02T03:10:41;12.80;99.90
12872;DHT22;6504;53.766;9.626;2022-09-02T03:13:11;12.80;99.90
12872;DHT22;6504;53.766;9.626;2022-09-02T03:15:41;12.70;99.90
12872;DHT22;6504;53.766;9.626;2022-09-02T03:18:09;12.70;99.90
12872;DHT22;6504;53.766;9.626;2022-09-02T03:20:38;12.70;99.90
12872;DHT22;6504;53.766;9.626;2022-09-02T03:23:10;12.70;99.90
12872;DHT22;6504;53.766;9.626;2022-09-02T03:25:42;12.70;99.90
12872;DHT22;6504;53.766;9.626;2022-09-02T03:28:12;12.70;99.90
12872;DHT22;6504;53.766;9.626;2022-09-02T03:30:40;12.60;99.90
12872;DHT22;6504;53.766;9.626;2022-09-02T03:33:08;12.50;99.90
12872;DHT22;6504;53.766;9.626;2022-09-02T03:35:41;12.50;99.90
12872;DHT22;6504;53.766;9.626;2022-09-02T03:38:10;12.40;99.90
12872;DHT22;6504;53.766;9.626;2022-09-02T03:40:39;12.40;99.90
12872;DHT22;6504;53.766;9.626;2022-09-02T03:43:07;12.40;99.90
12872;DHT22;6504;53.766;9.626;2022-09-02T03:45:40;12.40;99.90
12872;DHT22;6504;53.766;9.626;2022-09-02T03:48:10;12.30;99.90
12872;DHT22;6504;53.766;9.626;2022-09-02T03:50:40;12.30;99.90
12872;DHT22;6504;53.766;9.626;2022-09-02T03:53:13;12.20;99.90
12872;DHT22;6504;53.766;9.626;2022-09-02T03:55:45;12.20;99.90
12872;DHT22;6504;53.766;9.626;2022-09-02T03:58:16;12.20;99.90
12872;DHT22;6504;53.766;9.626;2022-09-02T04:00:50;12.20;99.90
12872;DHT22;6504;53.766;9.626;2022-09-02T04:03:19;12.20;99.90
12872;DHT22;6504;53.766;9.626;2022-09-02T04:05:48;12.20;99.90
12872;DHT22;6504;53.766;9.626;2022-09-02T04:08:18;12.10;99.90
12872;DHT22;6504;53.766;9.626;2022-09-02T04:10:50;12.10;99.90
12872;DHT22;6504;53.766;9.626;2022-09-02T04:13:18;12.10;99.90
12872;DHT22;6504;53.766;9.626;2022-09-02T04:15:46;12.10;99.90
12872;DHT22;6504;53.766;9.626;2022-09-02T04:18:17;12.10;99.90
12872;DHT22;6504;53.766;9.626;2022-09-02T04:20:45;12.00;99.90
12872;DHT22;6504;53.766;9.626;2022-09-02T04:23:13;12.00;99.90
12872;DHT22;6504;53.766;9.626;2022-09-02T04:25:42;12.00;99.90
12872;DHT22;6504;53.766;9.626;2022-09-02T04:28:15;11.90;99.90
12872;DHT22;6504;53.766;9.626;2022-09-02T04:30:43;11.90;99.90
12872;DHT22;6504;53.766;9.626;2022-09-02T04:33:20;11.90;99.90
12872;DHT22;6504;53.766;9.626;2022-09-02T04:35:48;11.90;99.90
12872;DHT22;6504;53.766;9.626;2022-09-02T04:38:21;11.80;99.90
12872;DHT22;6504;53.766;9.626;2022-09-02T04:40:49;11.80;99.90
12872;DHT22;6504;53.766;9.626;2022-09-02T04:43:17;11.80;99.90
12872;DHT22;6504;53.766;9.626;2022-09-02T04:45:45;11.80;99.90
12872;DHT22;6504;53.766;9.626;2022-09-02T04:48:15;11.80;99.90
12872;DHT22;6504;53.766;9.626;2022-09-02T04:50:47;11.80;99.90
12872;DHT22;6504;53.766;9.626;2022-09-02T04:53:16;11.80;99.90
12872;DHT22;6504;53.766;9.626;2022-09-02T04:55:47;11.70;99.90
12872;DHT22;6504;53.766;9.626;2022-09-02T04:58:19;11.70;99.90
12872;DHT22;6504;53.766;9.626;2022-09-02T05:00:50;11.70;99.90
12872;DHT22;6504;53.766;9.626;2022-09-02T05:03:20;11.70;99.90
12872;DHT22;6504;53.766;9.626;2022-09-02T05:05:59;11.70;99.90
12872;DHT22;6504;53.766;9.626;2022-09-02T05:08:27;11.70;99.90
12872;DHT22;6504;53.766;9.626;2022-09-02T05:10:58;11.70;99.90
12872;DHT22;6504;53.766;9.626;2022-09-02T05:13:27;11.70;99.90
12872;DHT22;6504;53.766;9.626;2022-09-02T05:15:56;11.70;99.90
12872;DHT22;6504;53.766;9.626;2022-09-02T05:18:27;11.70;99.90
12872;DHT22;6504;53.766;9.626;2022-09-02T05:21:03;11.70;99.90
12872;DHT22;6504;53.766;9.626;2022-09-02T05:23:32;11.70;99.90
12872;DHT22;6504;53.766;9.626;2022-09-02T05:26:05;11.70;99.90
12872;DHT22;6504;53.766;9.626;2022-09-02T05:28:34;11.70;99.90
12872;DHT22;6504;53.766;9.626;2022-09-02T05:31:06;11.80;99.90
12872;DHT22;6504;53.766;9.626;2022-09-02T05:33:38;11.80;99.90
12872;DHT22;6504;53.766;9.626;2022-09-02T05:36:09;11.80;99.90
12872;DHT22;6504;53.766;9.626;2022-09-02T05:38:38;11.80;99.90
12872;DHT22;6504;53.766;9.626;2022-09-02T05:41:08;11.80;99.90
12872;DHT22;6504;53.766;9.626;2022-09-02T05:43:39;11.80;99.90
12872;DHT22;6504;53.766;9.626;2022-09-02T05:46:10;11.80;99.90
12872;DHT22;6504;53.766;9.626;2022-09-02T05:48:40;11.80;99.90
12872;DHT22;6504;53.766;9.626;2022-09-02T05:51:26;11.80;99.90
12872;DHT22;6504;53.766;9.626;2022-09-02T05:53:59;11.80;99.90
12872;DHT22;6504;53.766;9.626;2022-09-02T05:56:28;11.90;99.90
12872;DHT22;6504;53.766;9.626;2022-09-02T05:58:57;11.90;99.90
12872;DHT22;6504;53.766;9.626;2022-09-02T06:01:28;12.00;99.90
12872;DHT22;6504;53.766;9.626;2022-09-02T06:04:02;12.00;99.90
12872;DHT22;6504;53.766;9.626;2022-09-02T06:06:31;12.10;99.90
12872;DHT22;6504;53.766;9.626;2022-09-02T06:09:00;12.10;99.90
12872;DHT22;6504;53.766;9.626;2022-09-02T06:11:30;12.30;99.90
12872;DHT22;6504;53.766;9.626;2022-09-02T06:13:58;12.40;99.90
12872;DHT22;6504;53.766;9.626;2022-09-02T06:16:34;12.50;99.90
12872;DHT22;6504;53.766;9.626;2022-09-02T06:19:06;12.60;99.90
12872;DHT22;6504;53.766;9.626;2022-09-02T06:21:35;12.70;99.90
12872;DHT22;6504;53.766;9.626;2022-09-02T06:24:08;12.80;99.90
12872;DHT22;6504;53.766;9.626;2022-09-02T06:26:38;12.90;99.90
12872;DHT22;6504;53.766;9.626;2022-09-02T06:29:10;13.10;99.90
12872;DHT22;6504;53.766;9.626;2022-09-02T06:31:40;13.10;99.90
12872;DHT22;6504;53.766;9.626;2022-09-02T06:34:11;13.30;99.90
12872;DHT22;6504;53.766;9.626;2022-09-02T06:36:43;13.40;99.90
12872;DHT22;6504;53.766;9.626;2022-09-02T06:39:16;13.50;99.90
12872;DHT22;6504;53.766;9.626;2022-09-02T06:41:45;13.60;99.90
12872;DHT22;6504;53.766;9.626;2022-09-02T06:44:16;13.70;99.90
12872;DHT22;6504;53.766;9.626;2022-09-02T06:46:52;13.80;99.90
12872;DHT22;6504;53.766;9.626;2022-09-02T06:49:23;13.80;99.90
12872;DHT22;6504;53.766;9.626;2022-09-02T06:51:55;13.90;99.90
12872;DHT22;6504;53.766;9.626;2022-09-02T06:54:24;14.00;99.90
12872;DHT22;6504;53.766;9.626;2022-09-02T06:56:55;14.10;99.90
12872;DHT22;6504;53.766;9.626;2022-09-02T06:59:23;14.20;99.90
12872;DHT22;6504;53.766;9.626;2022-09-02T07:01:51;14.30;99.90
12872;DHT22;6504;53.766;9.626;2022-09-02T07:04:19;14.40;99.90
12872;DHT22;6504;53.766;9.626;2022-09-02T07:07:07;14.50;99.90
12872;DHT22;6504;53.766;9.626;2022-09-02T07:09:38;14.60;99.90
12872;DHT22;6504;53.766;9.626;2022-09-02T07:12:06;14.70;99.90
12872;DHT22;6504;53.766;9.626;2022-09-02T07:14:36;14.80;99.90
12872;DHT22;6504;53.766;9.626;2022-09-02T07:17:10;14.90;99.90
12872;DHT22;6504;53.766;9.626;2022-09-02T07:19:38;15.00;99.90
12872;DHT22;6504;53.766;9.626;2022-09-02T07:22:10;15.10;99.90
12872;DHT22;6504;53.766;9.626;2022-09-02T07:24:46;15.20;99.90
12872;DHT22;6504;53.766;9.626;2022-09-02T07:27:17;15.30;99.90
12872;DHT22;6504;53.766;9.626;2022-09-02T07:29:46;15.40;99.90
12872;DHT22;6504;53.766;9.626;2022-09-02T07:32:14;15.50;99.90
12872;DHT22;6504;53.766;9.626;2022-09-02T07:34:45;15.70;99.90
12872;DHT22;6504;53.766;9.626;2022-09-02T07:37:14;15.80;99.90
12872;DHT22;6504;53.766;9.626;2022-09-02T07:39:45;15.90;99.90
12872;DHT22;6504;53.766;9.626;2022-09-02T07:42:14;16.00;99.90
12872;DHT22;6504;53.766;9.626;2022-09-02T07:44:43;16.10;99.90
12872;DHT22;6504;53.766;9.626;2022-09-02T07:47:11;16.10;99.90
12872;DHT22;6504;53.766;9.626;2022-09-02T07:49:39;16.20;99.90
12872;DHT22;6504;53.766;9.626;2022-09-02T07:52:29;16.40;99.90
12872;DHT22;6504;53.766;9.626;2022-09-02T07:55:00;16.50;99.90
12872;DHT22;6504;53.766;9.626;2022-09-02T07:57:28;16.60;99.90
12872;DHT22;6504;53.766;9.626;2022-09-02T08:00:00;16.70;99.90
12872;DHT22;6504;53.766;9.626;2022-09-02T08:02:29;16.80;99.90
12872;DHT22;6504;53.766;9.626;2022-09-02T08:04:57;16.90;99.90
12872;DHT22;6504;53.766;9.626;2022-09-02T08:07:29;17.00;99.90
12872;DHT22;6504;53.766;9.626;2022-09-02T08:09:57;17.10;99.90
12872;DHT22;6504;53.766;9.626;2022-09-02T08:12:27;17.10;99.90
12872;DHT22;6504;53.766;9.626;2022-09-02T08:14:55;17.10;99.90
12872;DHT22;6504;53.766;9.626;2022-09-02T08:17:27;17.30;99.90
12872;DHT22;6504;53.766;9.626;2022-09-02T08:19:55;17.40;99.90
12872;DHT22;6504;53.766;9.626;2022-09-02T08:22:24;17.50;99.90
12872;DHT22;6504;53.766;9.626;2022-09-02T08:24:57;17.60;99.90
12872;DHT22;6504;53.766;9.626;2022-09-02T08:27:25;17.60;99.90
12872;DHT22;6504;53.766;9.626;2022-09-02T08:29:56;17.70;99.90
12872;DHT22;6504;53.766;9.626;2022-09-02T08:32:24;17.80;99.90
12872;DHT22;6504;53.766;9.626;2022-09-02T08:34:53;17.90;99.90
12872;DHT22;6504;53.766;9.626;2022-09-02T08:37:23;18.00;99.90
12872;DHT22;6504;53.766;9.626;2022-09-02T08:39:51;18.10;99.90
12872;DHT22;6504;53.766;9.626;2022-09-02T08:42:23;18.30;99.90
12872;DHT22;6504;53.766;9.626;2022-09-02T08:44:57;18.40;99.90
12872;DHT22;6504;53.766;9.626;2022-09-02T08:47:30;18.50;99.90
12872;DHT22;6504;53.766;9.626;2022-09-02T08:50:03;18.60;99.90
12872;DHT22;6504;53.766;9.626;2022-09-02T08:52:37;18.60;99.90
12872;DHT22;6504;53.766;9.626;2022-09-02T08:55:12;18.70;99.90
12872;DHT22;6504;53.766;9.626;2022-09-02T08:57:44;18.80;99.90
12872;DHT22;6504;53.766;9.626;2022-09-02T09:00:17;18.90;99.90
12872;DHT22;6504;53.766;9.626;2022-09-02T09:02:53;19.00;99.90
12872;DHT22;6504;53.766;9.626;2022-09-02T09:05:32;19.10;99.90
12872;DHT22;6504;53.766;9.626;2022-09-02T09:08:13;19.00;99.90
12872;DHT22;6504;53.766;9.626;2022-09-02T09:10:55;19.10;99.90
12872;DHT22;6504;53.766;9.626;2022-09-02T09:14:04;19.20;99.90
12872;DHT22;6504;53.766;9.626;2022-09-02T09:16:43;19.30;99.90
12872;DHT22;6504;53.766;9.626;2022-09-02T09:19:19;19.40;99.90
12872;DHT22;6504;53.766;9.626;2022-09-02T09:21:53;19.50;99.90
12872;DHT22;6504;53.766;9.626;2022-09-02T09:24:29;19.60;99.90
12872;DHT22;6504;53.766;9.626;2022-09-02T09:27:07;19.70;99.90
12872;DHT22;6504;53.766;9.626;2022-09-02T09:29:38;19.80;99.90
12872;DHT22;6504;53.766;9.626;2022-09-02T09:32:19;19.90;99.90
12872;DHT22;6504;53.766;9.626;2022-09-02T09:35:03;19.90;99.90
12872;DHT22;6504;53.766;9.626;2022-09-02T09:37:38;20.00;99.90
12872;DHT22;6504;53.766;9.626;2022-09-02T09:40:33;20.00;99.90
12872;DHT22;6504;53.766;9.626;2022-09-02T09:43:12;20.00;99.90
12872;DHT22;6504;53.766;9.626;2022-09-02T09:45:51;20.10;99.90
12872;DHT22;6504;53.766;9.626;2022-09-02T09:48:24;20.20;99.90
12872;DHT22;6504;53.766;9.626;2022-09-02T09:51:11;20.20;99.90
12872;DHT22;6504;53.766;9.626;2022-09-02T09:53:40;20.30;99.90
12872;DHT22;6504;53.766;9.626;2022-09-02T09:56:29;20.30;99.90
12872;DHT22;6504;53.766;9.626;2022-09-02T09:59:07;20.40;99.90
12872;DHT22;6504;53.766;9.626;2022-09-02T10:01:49;20.40;99.90
12872;DHT22;6504;53.766;9.626;2022-09-02T10:04:29;20.60;99.90
12872;DHT22;6504;53.766;9.626;2022-09-02T10:07:33;20.70;99.90
12872;DHT22;6504;53.766;9.626;2022-09-02T10:10:14;20.70;99.90
12872;DHT22;6504;53.766;9.626;2022-09-02T10:12:46;20.70;99.90
12872;DHT22;6504;53.766;9.626;2022-09-02T10:15:17;20.80;99.90
12872;DHT22;6504;53.766;9.626;2022-09-02T10:17:53;20.80;99.90
12872;DHT22;6504;53.766;9.626;2022-09-02T10:20:33;20.90;99.90
12872;DHT22;6504;53.766;9.626;2022-09-02T10:23:22;21.00;99.90
12872;DHT22;6504;53.766;9.626;2022-09-02T10:26:05;21.10;99.90
12872;DHT22;6504;53.766;9.626;2022-09-02T10:31:48;21.30;99.90
12872;DHT22;6504;53.766;9.626;2022-09-02T10:34:29;21.40;99.90
12872;DHT22;6504;53.766;9.626;2022-09-02T10:37:11;21.40;99.90
12872;DHT22;6504;53.766;9.626;2022-09-02T10:40:05;21.50;99.90
12872;DHT22;6504;53.766;9.626;2022-09-02T10:42:52;21.50;99.90
12872;DHT22;6504;53.766;9.626;2022-09-02T10:45:30;21.60;99.90
12872;DHT22;6504;53.766;9.626;2022-09-02T10:48:24;21.60;99.90
12872;DHT22;6504;53.766;9.626;2022-09-02T10:51:05;21.60;99.90
12872;DHT22;6504;53.766;9.626;2022-09-02T10:53:55;21.70;99.90
12872;DHT22;6504;53.766;9.626;2022-09-02T10:56:30;21.80;99.90
12872;DHT22;6504;53.766;9.626;2022-09-02T10:59:04;21.80;99.90
12872;DHT22;6504;53.766;9.626;2022-09-02T11:01:36;21.90;99.90
12872;DHT22;6504;53.766;9.626;2022-09-02T11:04:15;21.80;99.90
12872;DHT22;6504;53.766;9.626;2022-09-02T11:06:57;21.80;99.90
12872;DHT22;6504;53.766;9.626;2022-09-02T11:09:36;21.90;99.90
12872;DHT22;6504;53.766;9.626;2022-09-02T11:12:08;21.90;99.90
12872;DHT22;6504;53.766;9.626;2022-09-02T11:14:47;22.10;99.90
12872;DHT22;6504;53.766;9.626;2022-09-02T11:17:23;22.20;99.90
12872;DHT22;6504;53.766;9.626;2022-09-02T11:19:57;22.20;99.90
12872;DHT22;6504;53.766;9.626;2022-09-02T11:22:39;22.20;99.90
12872;DHT22;6504;53.766;9.626;2022-09-02T11:25:14;22.30;99.90
12872;DHT22;6504;53.766;9.626;2022-09-02T11:27:51;22.40;99.90
12872;DHT22;6504;53.766;9.626;2022-09-02T11:30:24;22.40;99.90
12872;DHT22;6504;53.766;9.626;2022-09-02T11:33:03;22.50;99.90
12872;DHT22;6504;53.766;9.626;2022-09-02T11:35:38;22.50;99.90
12872;DHT22;6504;53.766;9.626;2022-09-02T11:38:23;22.50;99.90
12872;DHT22;6504;53.766;9.626;2022-09-02T11:41:24;22.50;99.90
12872;DHT22;6504;53.766;9.626;2022-09-02T11:50:54;22.80;99.90
12872;DHT22;6504;53.766;9.626;2022-09-02T11:53:34;22.80;99.90
12872;DHT22;6504;53.766;9.626;2022-09-02T11:56:10;22.80;99.90
12872;DHT22;6504;53.766;9.626;2022-09-02T11:58:46;22.90;99.90
12872;DHT22;6504;53.766;9.626;2022-09-02T12:01:22;22.90;99.90
12872;DHT22;6504;53.766;9.626;2022-09-02T12:03:58;22.90;99.90
12872;DHT22;6504;53.766;9.626;2022-09-02T12:07:21;23.00;99.90
12872;DHT22;6504;53.766;9.626;2022-09-02T12:10:04;23.20;99.90
12872;DHT22;6504;53.766;9.626;2022-09-02T12:13:02;23.30;99.90
12872;DHT22;6504;53.766;9.626;2022-09-02T12:15:35;23.40;99.90
12872;DHT22;6504;53.766;9.626;2022-09-02T12:18:26;23.60;99.90
12872;DHT22;6504;53.766;9.626;2022-09-02T12:21:16;23.80;99.90
12872;DHT22;6504;53.766;9.626;2022-09-02T12:24:08;23.80;99.90
12872;DHT22;6504;53.766;9.626;2022-09-02T12:27:04;23.90;99.90
12872;DHT22;6504;53.766;9.626;2022-09-02T12:29:33;23.90;99.90
12872;DHT22;6504;53.766;9.626;2022-09-02T12:32:07;23.70;99.90
12872;DHT22;6504;53.766;9.626;2022-09-02T12:35:09;23.70;99.90
12872;DHT22;6504;53.766;9.626;2022-09-02T12:40:54;23.50;99.90
12872;DHT22;6504;53.766;9.626;2022-09-02T12:43:32;23.50;99.90
12872;DHT22;6504;53.766;9.626;2022-09-02T12:46:15;23.50;99.90
12872;DHT22;6504;53.766;9.626;2022-09-02T12:48:56;23.50;99.90
12872;DHT22;6504;53.766;9.626;2022-09-02T12:51:52;23.40;99.90
12872;DHT22;6504;53.766;9.626;2022-09-02T12:54:30;23.40;99.90
12872;DHT22;6504;53.766;9.626;2022-09-02T12:56:59;23.30;99.90
12872;DHT22;6504;53.766;9.626;2022-09-02T12:59:31;23.30;99.90
12872;DHT22;6504;53.766;9.626;2022-09-02T13:02:20;23.30;99.90
12872;DHT22;6504;53.766;9.626;2022-09-02T13:05:04;23.40;99.90
12872;DHT22;6504;53.766;9.626;2022-09-02T13:11:36;23.60;99.90
12872;DHT22;6504;53.766;9.626;2022-09-02T13:14:47;23.70;99.90
12872;DHT22;6504;53.766;9.626;2022-09-02T13:17:24;23.90;99.90
12872;DHT22;6504;53.766;9.626;2022-09-02T13:23:50;23.90;99.90
12872;DHT22;6504;53.766;9.626;2022-09-02T13:26:40;23.80;99.90
12872;DHT22;6504;53.766;9.626;2022-09-02T13:32:30;23.90;99.90
12872;DHT22;6504;53.766;9.626;2022-09-02T13:35:02;23.90;99.90
12872;DHT22;6504;53.766;9.626;2022-09-02T13:37:37;24.00;99.90
12872;DHT22;6504;53.766;9.626;2022-09-02T13:40:16;24.00;99.90
12872;DHT22;6504;53.766;9.626;2022-09-02T13:42:48;23.90;99.90
12872;DHT22;6504;53.766;9.626;2022-09-02T13:45:21;23.90;99.90
12872;DHT22;6504;53.766;9.626;2022-09-02T13:47:56;23.80;99.90
12872;DHT22;6504;53.766;9.626;2022-09-02T13:50:26;23.70;99.90
12872;DHT22;6504;53.766;9.626;2022-09-02T13:52:57;23.80;99.90
12872;DHT22;6504;53.766;9.626;2022-09-02T13:55:50;23.80;99.90
12872;DHT22;6504;53.766;9.626;2022-09-02T13:58:24;23.80;99.90
12872;DHT22;6504;53.766;9.626;2022-09-02T14:01:16;23.80;99.90
12872;DHT22;6504;53.766;9.626;2022-09-02T14:03:47;23.80;99.90
12872;DHT22;6504;53.766;9.626;2022-09-02T14:06:19;23.80;99.90
12872;DHT22;6504;53.766;9.626;2022-09-02T14:08:51;23.70;99.90
12872;DHT22;6504;53.766;9.626;2022-09-02T14:11:21;23.60;99.90
12872;DHT22;6504;53.766;9.626;2022-09-02T14:13:50;23.70;99.90
12872;DHT22;6504;53.766;9.626;2022-09-02T14:16:29;23.60;99.90
12872;DHT22;6504;53.766;9.626;2022-09-02T14:19:10;23.60;99.90
12872;DHT22;6504;53.766;9.626;2022-09-02T14:21:48;23.60;99.90
12872;DHT22;6504;53.766;9.626;2022-09-02T14:24:20;23.60;99.90
12872;DHT22;6504;53.766;9.626;2022-09-02T14:26:50;23.60;99.90
12872;DHT22;6504;53.766;9.626;2022-09-02T14:29:20;23.50;99.90
12872;DHT22;6504;53.766;9.626;2022-09-02T14:32:10;23.50;99.90
12872;DHT22;6504;53.766;9.626;2022-09-02T14:34:44;23.50;99.90
12872;DHT22;6504;53.766;9.626;2022-09-02T14:37:21;23.40;99.90
12872;DHT22;6504;53.766;9.626;2022-09-02T14:42:49;23.40;99.90
12872;DHT22;6504;53.766;9.626;2022-09-02T14:45:26;23.40;99.90
12872;DHT22;6504;53.766;9.626;2022-09-02T14:47:59;23.50;99.90
12872;DHT22;6504;53.766;9.626;2022-09-02T14:50:34;23.50;99.90
12872;DHT22;6504;53.766;9.626;2022-09-02T14:53:06;23.40;99.90
12872;DHT22;6504;53.766;9.626;2022-09-02T14:55:46;23.40;99.90
12872;DHT22;6504;53.766;9.626;2022-09-02T14:58:19;23.40;99.90
12872;DHT22;6504;53.766;9.626;2022-09-02T15:00:54;23.40;99.90
12872;DHT22;6504;53.766;9.626;2022-09-02T15:03:22;23.40;99.90
12872;DHT22;6504;53.766;9.626;2022-09-02T15:05:55;23.40;99.90
12872;DHT22;6504;53.766;9.626;2022-09-02T15:08:23;23.40;99.90
12872;DHT22;6504;53.766;9.626;2022-09-02T15:10:57;23.30;99.90
12872;DHT22;6504;53.766;9.626;2022-09-02T15:13:28;23.20;99.90
12872;DHT22;6504;53.766;9.626;2022-09-02T15:15:58;23.30;99.90
12872;DHT22;6504;53.766;9.626;2022-09-02T15:18:26;23.30;99.90
12872;DHT22;6504;53.766;9.626;2022-09-02T15:20:55;23.30;99.90
12872;DHT22;6504;53.766;9.626;2022-09-02T15:23:27;23.30;99.90
12872;DHT22;6504;53.766;9.626;2022-09-02T15:26:00;23.20;99.90
12872;DHT22;6504;53.766;9.626;2022-09-02T15:28:32;23.20;99.90
12872;DHT22;6504;53.766;9.626;2022-09-02T15:31:01;23.20;99.90
12872;DHT22;6504;53.766;9.626;2022-09-02T15:33:29;23.20;99.90
12872;DHT22;6504;53.766;9.626;2022-09-02T15:36:06;23.20;99.90
12872;DHT22;6504;53.766;9.626;2022-09-02T15:38:34;23.20;99.90
12872;DHT22;6504;53.766;9.626;2022-09-02T15:41:14;23.20;99.90
12872;DHT22;6504;53.766;9.626;2022-09-02T15:43:43;23.10;99.90
12872;DHT22;6504;53.766;9.626;2022-09-02T15:46:19;23.10;99.90
12872;DHT22;6504;53.766;9.626;2022-09-02T15:48:52;23.10;99.90
12872;DHT22;6504;53.766;9.626;2022-09-02T15:51:28;23.00;99.90
12872;DHT22;6504;53.766;9.626;2022-09-02T15:54:02;23.00;99.90
12872;DHT22;6504;53.766;9.626;2022-09-02T15:56:32;22.90;99.90
12872;DHT22;6504;53.766;9.626;2022-09-02T15:59:06;22.90;99.90
12872;DHT22;6504;53.766;9.626;2022-09-02T16:01:37;22.90;99.90
12872;DHT22;6504;53.766;9.626;2022-09-02T16:04:10;22.90;99.90
12872;DHT22;6504;53.766;9.626;2022-09-02T16:06:42;22.90;99.90
12872;DHT22;6504;53.766;9.626;2022-09-02T16:09:12;22.90;99.90
12872;DHT22;6504;53.766;9.626;2022-09-02T16:11:41;22.90;99.90
12872;DHT22;6504;53.766;9.626;2022-09-02T16:14:13;22.80;99.90
12872;DHT22;6504;53.766;9.626;2022-09-02T16:16:46;22.70;99.90
12872;DHT22;6504;53.766;9.626;2022-09-02T16:19:18;22.70;99.90
12872;DHT22;6504;53.766;9.626;2022-09-02T16:22:08;22.60;99.90
12872;DHT22;6504;53.766;9.626;2022-09-02T16:24:54;22.50;99.90
12872;DHT22;6504;53.766;9.626;2022-09-02T16:27:39;22.50;99.90
12872;DHT22;6504;53.766;9.626;2022-09-02T16:30:38;22.50;99.90
12872;DHT22;6504;53.766;9.626;2022-09-02T16:33:23;22.50;99.90
12872;DHT22;6504;53.766;9.626;2022-09-02T16:36:09;22.50;99.90
12872;DHT22;6504;53.766;9.626;2022-09-02T16:38:56;22.50;99.90
12872;DHT22;6504;53.766;9.626;2022-09-02T16:41:46;22.50;99.90
12872;DHT22;6504;53.766;9.626;2022-09-02T16:44:32;22.50;99.90
12872;DHT22;6504;53.766;9.626;2022-09-02T16:47:19;22.40;99.90
12872;DHT22;6504;53.766;9.626;2022-09-02T16:50:05;22.40;99.90
12872;DHT22;6504;53.766;9.626;2022-09-02T16:52:53;22.30;99.90
12872;DHT22;6504;53.766;9.626;2022-09-02T16:55:44;22.20;99.90
12872;DHT22;6504;53.766;9.626;2022-09-02T16:58:29;22.20;99.90